TimeCDT,TemperatureF,Dew PointF,Humidity,Sea Level PressureIn,VisibilityMPH,Wind Direction,Wind SpeedMPH,Gust SpeedMPH,PrecipitationIn,Events,Conditions,WindDirDegrees,DateUTC
12:54 AM,70.0,64.0,81,30.16,10.0,ENE,4.6,-,N/A,,Clear,60,2012-09-15 05:54:00
1:54 AM,66.0,63.0,90,30.15,10.0,Calm,Calm,-,N/A,,Clear,0,2012-09-15 06:54:00
2:54 AM,69.1,63.0,81,30.12,10.0,ENE,5.8,-,N/A,,Clear,60,2012-09-15 07:54:00
3:54 AM,68.0,63.0,84,30.12,10.0,ENE,3.5,-,N/A,,Clear,70,2012-09-15 08:54:00
4:54 AM,66.9,62.1,84,30.12,10.0,ENE,4.6,-,N/A,,Clear,60,2012-09-15 09:54:00
5:54 AM,64.9,62.1,90,30.14,9.0,Calm,Calm,-,N/A,,Clear,0,2012-09-15 10:54:00
6:54 AM,64.0,62.1,93,30.15,7.0,Calm,Calm,-,N/A,,Clear,0,2012-09-15 11:54:00
7:54 AM,69.1,63.0,81,30.15,7.0,Calm,Calm,-,N/A,,Clear,0,2012-09-15 12:54:00
8:54 AM,75.0,64.0,69,30.16,10.0,Calm,Calm,-,N/A,,Clear,0,2012-09-15 13:54:00
9:54 AM,80.1,64.9,60,30.15,10.0,East,4.6,-,N/A,,Clear,90,2012-09-15 14:54:00
10:54 AM,82.0,64.0,54,30.15,10.0,Variable,4.6,-,N/A,,Clear,0,2012-09-15 15:54:00
11:54 AM,84.9,64.0,49,30.12,10.0,ESE,6.9,-,N/A,,Scattered Clouds,110,2012-09-15 16:54:00
12:54 PM,86.0,64.0,48,30.11,10.0,Variable,4.6,-,N/A,,Scattered Clouds,0,2012-09-15 17:54:00
1:54 PM,87.1,62.1,43,30.09,10.0,Calm,Calm,-,N/A,,Partly Cloudy,0,2012-09-15 18:54:00
2:54 PM,87.1,61.0,41,30.07,10.0,ESE,4.6,-,N/A,,Partly Cloudy,120,2012-09-15 19:54:00
3:54 PM,88.0,61.0,40,30.06,10.0,Variable,3.5,-,N/A,,Mostly Cloudy,0,2012-09-15 20:54:00
4:54 PM,86.0,63.0,46,30.06,10.0,ENE,3.5,-,N/A,,Scattered Clouds,60,2012-09-15 21:54:00
5:54 PM,82.9,68.0,60,30.06,10.0,Calm,Calm,-,N/A,,Partly Cloudy,0,2012-09-15 22:54:00
6:54 PM,77.0,70.0,79,30.05,10.0,Calm,Calm,-,N/A,,Clear,0,2012-09-15 23:54:00
7:54 PM,75.0,66.9,76,30.05,10.0,Calm,Calm,-,N/A,,Clear,0,2012-09-16 00:54:00
8:54 PM,73.9,68.0,82,30.06,10.0,Calm,Calm,-,N/A,,Clear,0,2012-09-16 01:54:00
9:54 PM,72.0,68.0,87,30.07,10.0,Calm,Calm,-,N/A,,Clear,0,2012-09-16 02:54:00
10:54 PM,71.1,66.9,87,30.07,10.0,Calm,Calm,-,N/A,,Clear,0,2012-09-16 03:54:00
11:54 PM,70.0,66.0,87,30.06,10.0,Calm,Calm,-,N/A,,Clear,0,2012-09-16 04:54:00